createdAt,value
2022-09-28T00:02:03.943Z,152401.91
2022-09-28T00:04:33.065Z,152396.75
2022-09-28T00:07:01.785Z,152403.16
2022-09-28T00:09:29.143Z,152396.75
2022-09-28T00:11:56.951Z,152448.22
2022-09-28T00:14:25.002Z,152445.63
2022-09-28T00:16:52.467Z,152432.78
2022-09-28T00:19:20.328Z,152404.44
2022-09-28T00:21:47.942Z,152435.34
2022-09-28T00:24:17.130Z,152507.50
2022-09-28T00:26:47.497Z,152502.34
2022-09-28T00:29:21.781Z,152432.78
2022-09-28T00:31:49.481Z,152405.75
2022-09-28T00:34:17.059Z,152443.06
2022-09-28T00:36:46.046Z,152423.78
2022-09-28T00:39:15.325Z,152432.78
2022-09-28T00:41:44.300Z,152463.66
2022-09-28T00:44:35.166Z,152425.06
2022-09-28T00:47:08.149Z,152434.06
2022-09-28T00:49:41.734Z,152439.22
2022-09-28T00:52:13.676Z,152431.47
2022-09-28T00:54:44.184Z,152439.22
2022-09-28T00:57:13.923Z,152453.38
2022-09-28T00:59:42.472Z,152435.34
2022-09-28T01:02:11.688Z,152425.06
2022-09-28T01:04:40.098Z,152445.63
2022-09-28T01:07:09.751Z,152404.44
2022-09-28T01:09:40.613Z,152320.84
2022-09-28T01:12:08.545Z,152325.97
2022-09-28T01:14:37.227Z,152373.59
2022-09-28T01:17:09.453Z,152345.28
2022-09-28T01:19:58.230Z,152360.72
2022-09-28T01:22:44.061Z,152346.56
2022-09-28T01:25:14.578Z,152349.09
2022-09-28T01:27:45.563Z,152319.56
2022-09-28T01:30:17.001Z,152301.53
2022-09-28T01:32:52.091Z,152268.06
2022-09-28T01:35:24.242Z,152265.53
2022-09-28T01:37:56.605Z,152280.97
2022-09-28T01:40:27.347Z,152325.97
2022-09-28T01:43:01.235Z,152283.50
2022-09-28T01:45:34.191Z,152292.53
2022-09-28T01:48:05.729Z,152248.78
2022-09-28T01:50:38.534Z,152242.31
2022-09-28T01:53:12.768Z,152295.06
2022-09-28T01:55:44.918Z,152265.53
2022-09-28T01:58:19.680Z,149080.13
2022-09-28T02:00:54.585Z,151261.41
2022-09-28T02:03:26.319Z,149393.22
2022-09-28T02:05:58.235Z,146381.38
2022-09-28T02:08:32.196Z,145732.19
2022-09-28T02:11:05.877Z,146771.56
2022-09-28T02:13:38.301Z,144359.91
2022-09-28T02:16:11.926Z,145746.97
2022-09-28T02:18:39.381Z,146080.28
2022-09-28T02:21:11.761Z,144715.13
2022-09-28T02:23:42.664Z,145416.13
2022-09-28T02:26:14.726Z,146103.69
2022-09-28T02:28:43.830Z,147534.44
2022-09-28T02:31:11.266Z,152356.84
2022-09-28T02:33:43.951Z,152352.97
2022-09-28T02:36:12.299Z,152327.25
2022-09-28T02:38:40.094Z,151706.97
2022-09-28T02:41:14.952Z,151232.78
2022-09-28T02:43:57.649Z,148085.03
2022-09-28T02:46:30.660Z,144053.34
2022-09-28T02:49:21.481Z,144737.16
2022-09-28T02:52:05.696Z,146455.56
2022-09-28T02:54:56.708Z,152363.25
2022-09-28T02:57:35.866Z,152367.13
2022-09-28T03:00:08.618Z,152340.13
2022-09-28T03:02:45.017Z,152333.72
2022-09-28T03:05:19.583Z,152322.09
2022-09-28T03:07:55.853Z,152322.09
2022-09-28T03:10:31.581Z,152306.69
2022-09-28T03:12:59.862Z,152316.97
2022-09-28T03:15:30.568Z,152306.69
2022-09-28T03:17:58.974Z,152301.53
2022-09-28T03:20:27.181Z,152322.09
2022-09-28T03:23:20.164Z,152345.28
2022-09-28T03:25:42.407Z,152264.22
2022-09-28T03:28:09.732Z,152244.91
2022-09-28T03:30:39.334Z,152283.50
2022-09-28T03:33:06.971Z,152208.91
2022-09-28T03:35:34.826Z,150686.44
2022-09-28T03:38:02.149Z,146026.00
2022-09-28T03:40:29.554Z,145300.72
2022-09-28T03:42:56.995Z,141832.22
2022-09-28T03:45:24.585Z,137750.84
2022-09-28T03:47:53.578Z,139829.16
2022-09-28T03:50:24.710Z,147163.56
2022-09-28T03:52:52.049Z,151967.47
2022-09-28T03:55:19.404Z,152295.06
2022-09-28T03:57:54.756Z,151732.72
2022-09-28T04:00:22.211Z,148938.50
2022-09-28T04:02:49.562Z,145771.59
2022-09-28T04:05:18.300Z,151049.94
2022-09-28T04:07:45.621Z,152378.72
2022-09-28T04:10:13.024Z,152382.59
2022-09-28T04:12:40.358Z,152419.91
2022-09-28T04:15:08.423Z,152368.44
2022-09-28T04:17:39.903Z,152368.44
2022-09-28T04:20:08.898Z,152371.00
2022-09-28T04:22:38.164Z,152334.94
2022-09-28T04:25:06.172Z,150307.66
2022-09-28T04:27:51.027Z,148169.09
2022-09-28T04:30:18.880Z,147664.13
2022-09-28T04:32:47.481Z,149697.97
2022-09-28T04:35:15.491Z,151427.38
2022-09-28T04:37:44.196Z,150645.75
2022-09-28T04:40:11.824Z,149882.59
2022-09-28T04:42:39.169Z,145695.28
2022-09-28T04:45:07.957Z,143309.13
2022-09-28T04:47:35.305Z,143576.84
2022-09-28T04:50:02.673Z,139796.06
2022-09-28T04:52:30.315Z,141501.63
2022-09-28T04:55:07.147Z,144960.28
2022-09-28T04:57:35.157Z,144606.44
2022-09-28T05:00:03.066Z,144257.53
2022-09-28T05:02:30.531Z,143576.84
2022-09-28T05:04:58.908Z,143595.03
2022-09-28T05:07:26.736Z,144277.03
2022-09-28T05:09:55.154Z,146923.72
2022-09-28T05:12:24.502Z,146644.91
2022-09-28T05:14:51.856Z,144918.69
2022-09-28T05:17:19.217Z,142862.41
2022-09-28T05:19:46.547Z,148477.22
2022-09-28T05:22:14.846Z,151248.88
2022-09-28T05:24:42.707Z,152243.63
2022-09-28T05:27:10.153Z,152250.06
2022-09-28T05:29:38.832Z,152246.19
2022-09-28T05:32:06.407Z,152243.63
2022-09-28T05:34:36.823Z,152271.94
2022-09-28T05:37:04.504Z,152318.25
2022-09-28T05:39:31.858Z,152301.53
2022-09-28T05:41:59.220Z,152278.38
2022-09-28T05:44:26.743Z,152304.09
2022-09-28T05:46:55.584Z,152365.84
2022-09-28T05:49:23.002Z,152365.84
2022-09-28T05:51:50.366Z,152373.59
2022-09-28T05:54:17.938Z,152414.78
2022-09-28T05:56:45.420Z,152373.59
2022-09-28T05:59:13.404Z,152403.16
2022-09-28T06:01:40.859Z,152383.88
2022-09-28T06:04:09.936Z,152386.47
2022-09-28T06:06:38.359Z,152414.78
2022-09-28T06:09:05.819Z,152378.72
2022-09-28T06:11:33.488Z,152386.47
2022-09-28T06:14:00.831Z,152426.34
2022-09-28T06:16:28.285Z,152419.91
2022-09-28T06:18:55.712Z,152426.34
2022-09-28T06:21:24.454Z,152434.06
2022-09-28T06:23:51.893Z,152445.63
2022-09-28T06:26:19.347Z,152470.09
2022-09-28T06:28:47.014Z,152445.63
2022-09-28T06:31:15.712Z,152462.38
2022-09-28T06:33:43.139Z,152455.91
2022-09-28T06:36:10.707Z,152476.53
2022-09-28T06:38:39.383Z,152471.38
2022-09-28T06:41:07.132Z,152507.50
2022-09-28T06:43:34.983Z,152548.69
2022-09-28T06:46:02.802Z,152576.97
2022-09-28T06:48:32.564Z,152542.25
2022-09-28T06:51:00.788Z,152569.28
2022-09-28T06:53:29.350Z,152543.53
2022-09-28T06:55:58.019Z,152565.41
2022-09-28T06:58:27.500Z,152582.16
2022-09-28T07:00:58.601Z,152571.88
2022-09-28T07:03:26.547Z,152601.50
2022-09-28T07:05:55.179Z,152552.53
2022-09-28T07:08:25.807Z,152555.13
2022-09-28T07:10:56.222Z,152597.63
2022-09-28T07:13:50.301Z,152605.31
2022-09-28T07:16:15.352Z,152628.53
2022-09-28T07:18:42.771Z,152636.25
2022-09-28T07:21:21.785Z,152640.13
2022-09-28T07:23:54.612Z,152616.97
2022-09-28T07:26:24.303Z,152623.38
2022-09-28T07:28:55.682Z,152628.53
2022-09-28T07:31:25.251Z,152640.13
2022-09-28T07:33:53.866Z,152620.78
2022-09-28T07:36:22.671Z,152607.91
2022-09-28T07:38:50.316Z,152623.38
2022-09-28T07:41:22.349Z,152633.66
2022-09-28T07:43:50.638Z,152601.50
2022-09-28T07:46:21.169Z,152605.31
2022-09-28T07:48:49.447Z,152615.66
2022-09-28T07:51:18.284Z,152595.03
2022-09-28T07:53:45.769Z,152607.91
2022-09-28T07:56:13.975Z,152623.38
2022-09-28T07:58:41.682Z,152656.88
2022-09-28T08:01:11.668Z,152672.28
2022-09-28T08:03:40.578Z,152698.06
2022-09-28T08:06:11.064Z,152708.38
2022-09-28T08:08:39.028Z,152732.84
2022-09-28T08:11:08.438Z,152747.03
2022-09-28T08:13:35.810Z,152725.09
2022-09-28T08:16:04.422Z,152734.16
2022-09-28T08:18:32.050Z,152735.44
2022-09-28T08:21:18.498Z,152736.75
2022-09-28T08:23:45.895Z,152721.28
2022-09-28T08:26:15.520Z,152731.56
2022-09-28T08:28:44.899Z,152727.69
2022-09-28T08:31:12.315Z,152725.09
2022-09-28T08:33:40.307Z,152754.75
2022-09-28T08:36:11.355Z,152687.75
2022-09-28T08:38:38.727Z,152700.63
2022-09-28T08:41:15.471Z,152682.63
2022-09-28T08:44:01.631Z,152716.09
2022-09-28T08:46:34.400Z,152673.59
2022-09-28T08:52:01.659Z,152620.78
2022-09-28T08:54:37.519Z,152616.97
2022-09-28T08:57:11.255Z,152618.19
2022-09-28T08:59:47.946Z,152580.88
2022-09-28T09:02:19.805Z,152471.38
2022-09-28T09:04:47.389Z,152502.34
2022-09-28T09:07:28.787Z,152473.97
2022-09-28T09:10:04.886Z,152534.53
2022-09-28T09:12:43.019Z,152566.69
2022-09-28T09:15:39.599Z,152600.19
2022-09-28T09:18:22.288Z,152598.91
2022-09-28T09:20:54.529Z,152613.06
2022-09-28T09:23:39.125Z,152641.41
2022-09-28T09:26:15.372Z,152618.19
2022-09-28T09:29:15.902Z,152681.34
2022-09-28T09:31:59.479Z,152662.00
2022-09-28T09:34:45.291Z,152674.88
2022-09-28T09:37:35.377Z,152656.88
2022-09-28T09:40:26.255Z,152604.03
2022-09-28T09:43:07.241Z,152615.66
2022-09-28T09:45:54.332Z,152600.19
2022-09-28T09:48:27.449Z,152593.75
2022-09-28T09:50:59.736Z,152615.66
2022-09-28T09:53:34.842Z,152619.50
2022-09-28T09:56:13.534Z,152543.53
2022-09-28T09:58:47.907Z,152522.97
2022-09-28T10:01:16.796Z,152548.69
2022-09-28T10:03:48.151Z,152529.38
2022-09-28T10:06:20.155Z,152507.50
2022-09-28T10:08:53.795Z,152528.06
2022-09-28T10:11:28.813Z,152486.81
2022-09-28T10:13:56.872Z,152494.59
2022-09-28T10:16:25.634Z,151484.41
2022-09-28T10:18:53.051Z,149729.09
2022-09-28T10:21:23.323Z,152692.94
2022-09-28T10:23:56.553Z,152714.81
2022-09-28T10:26:30.778Z,152678.75
2022-09-28T10:29:01.547Z,152624.66
2022-09-28T10:31:37.161Z,152654.28
2022-09-28T10:34:05.428Z,152710.97
2022-09-28T10:36:38.264Z,152651.72
2022-09-28T10:39:06.805Z,152654.28
2022-09-28T10:41:49.640Z,152651.72
2022-09-28T10:44:19.725Z,152690.34
2022-09-28T10:46:57.541Z,152674.88
2022-09-28T10:49:26.248Z,152677.47
2022-09-28T10:51:56.152Z,152651.72
2022-09-28T10:54:25.998Z,152651.72
2022-09-28T10:56:56.734Z,152659.41
2022-09-28T10:59:35.049Z,152610.50
2022-09-28T11:02:05.404Z,148294.91
2022-09-28T11:04:41.109Z,134307.41
2022-09-28T11:07:17.857Z,127427.78
2022-09-28T11:09:48.878Z,125361.75
2022-09-28T11:12:20.779Z,126061.25
2022-09-28T11:14:52.775Z,132654.31
2022-09-28T11:17:28.166Z,138514.47
2022-09-28T11:19:56.439Z,142345.38
2022-09-28T11:22:28.864Z,129117.47
2022-09-28T11:25:17.591Z,118075.84
2022-09-28T11:27:57.885Z,110538.50
2022-09-28T11:30:28.048Z,105401.66
2022-09-28T11:33:01.811Z,104740.88
2022-09-28T11:38:34.787Z,106922.44
2022-09-28T11:41:24.557Z,102220.88
2022-09-28T11:44:27.024Z,112278.19
2022-09-28T11:47:07.523Z,144458.59
2022-09-28T11:49:40.947Z,153302.88
2022-09-28T11:52:15.149Z,153341.59
2022-09-28T11:54:49.106Z,153314.50
2022-09-28T11:57:22.238Z,153244.75
2022-09-28T12:00:00.121Z,153181.53
2022-09-28T12:02:34.435Z,153198.28
2022-09-28T12:05:17.120Z,153158.28
2022-09-28T12:07:51.140Z,153136.38
2022-09-28T12:10:24.493Z,153119.59
2022-09-28T12:13:00.714Z,153108.00
2022-09-28T12:15:53.046Z,153166.06
2022-09-28T12:18:28.093Z,153117.00
2022-09-28T12:21:08.625Z,153065.44
2022-09-28T12:23:38.979Z,153074.50
2022-09-28T12:26:21.257Z,153077.03
2022-09-28T12:28:51.246Z,153007.44
2022-09-28T12:31:29.739Z,152896.50
2022-09-28T12:33:57.093Z,152842.38
2022-09-28T12:36:41.605Z,152901.69
2022-09-28T12:39:35.505Z,152958.41
2022-09-28T12:42:22.817Z,152875.88
2022-09-28T12:45:12.689Z,152899.16
2022-09-28T12:48:00.238Z,153002.25
2022-09-28T12:50:38.788Z,152994.50
2022-09-28T12:53:34.020Z,153095.09
2022-09-28T12:56:06.187Z,153053.84
2022-09-28T12:58:59.785Z,153066.72
2022-09-28T13:01:38.749Z,153022.88
2022-09-28T13:04:47.210Z,153038.34
2022-09-28T13:07:26.485Z,153086.09
2022-09-28T13:10:11.045Z,153028.03
2022-09-28T13:12:52.520Z,153006.16
2022-09-28T13:15:32.783Z,152990.66
2022-09-28T13:18:07.337Z,152981.63
2022-09-28T13:20:44.825Z,152935.22
2022-09-28T13:23:17.339Z,152980.38
2022-09-28T13:25:50.675Z,152967.44
2022-09-28T13:28:25.022Z,152979.06
2022-09-28T13:30:56.569Z,152955.84
2022-09-28T13:33:36.606Z,152988.06
2022-09-28T13:36:29.175Z,152973.91
2022-09-28T13:38:59.384Z,153015.16
2022-09-28T13:41:31.724Z,152949.41
2022-09-28T13:44:22.131Z,152930.06
2022-09-28T13:47:01.411Z,152966.19
2022-09-28T13:49:45.485Z,152937.81
2022-09-28T13:52:32.065Z,152912.03
2022-09-28T13:55:15.468Z,152865.56
2022-09-28T13:57:47.524Z,152832.09
2022-09-28T14:00:27.995Z,152857.84
2022-09-28T14:03:01.374Z,152865.56
2022-09-28T14:06:04.316Z,152915.88
2022-09-28T14:08:39.409Z,152901.69
2022-09-28T14:11:46.064Z,152902.97
2022-09-28T14:14:45.587Z,152896.50
2022-09-28T14:17:52.272Z,152870.75
2022-09-28T14:20:24.218Z,152906.88
2022-09-28T14:23:25.598Z,152852.69
2022-09-28T14:26:42.520Z,152839.78
2022-09-28T14:29:27.355Z,152783.09
2022-09-28T14:31:56.345Z,152805.03
2022-09-28T14:34:27.680Z,152837.22
2022-09-28T14:37:13.182Z,152788.25
2022-09-28T14:40:02.571Z,152703.22
2022-09-28T14:42:34.379Z,152676.16
2022-09-28T14:45:21.705Z,152726.41
2022-09-28T14:48:20.772Z,152832.09
2022-09-28T14:50:51.374Z,152902.97
2022-09-28T14:53:21.605Z,152211.88
2022-09-28T14:55:51.866Z,145801.47
2022-09-28T14:58:23.885Z,152873.28
2022-09-28T15:00:56.723Z,152901.69
2022-09-28T15:03:25.340Z,153012.56
2022-09-28T15:05:52.792Z,153039.66
2022-09-28T15:08:21.184Z,153002.25
2022-09-28T15:10:50.136Z,152976.50
2022-09-28T15:13:23.259Z,153056.44
2022-09-28T15:15:54.312Z,152922.34
2022-09-28T15:18:49.213Z,153047.41
2022-09-28T15:21:17.023Z,153097.69
2022-09-28T15:23:46.789Z,153084.81
2022-09-28T15:26:27.447Z,153015.16
2022-09-28T15:28:56.607Z,152963.59
2022-09-28T15:31:26.210Z,152901.69
2022-09-28T15:34:13.997Z,152986.78
2022-09-28T15:36:43.095Z,152906.88
2022-09-28T15:39:14.749Z,152896.50
2022-09-28T15:41:43.875Z,152862.97
2022-09-28T15:44:36.486Z,152795.97
2022-09-28T15:47:13.774Z,152772.78
2022-09-28T15:49:45.461Z,152771.50
2022-09-28T15:52:36.452Z,152839.78
2022-09-28T15:55:13.564Z,152888.75
2022-09-28T15:57:41.196Z,152816.63
2022-09-28T16:00:25.782Z,152865.56
2022-09-28T16:03:05.496Z,152954.53
2022-09-28T16:05:39.140Z,152988.06
2022-09-28T16:08:07.041Z,152844.97
2022-09-28T16:10:35.882Z,152816.63
2022-09-28T16:13:15.486Z,152785.69
2022-09-28T16:15:44.654Z,152775.38
2022-09-28T16:18:22.092Z,152734.16
2022-09-28T16:20:51.199Z,152726.41
2022-09-28T16:23:24.003Z,152767.63
2022-09-28T16:25:55.310Z,152710.97
2022-09-28T16:28:31.342Z,152754.75
2022-09-28T16:31:05.026Z,152847.50
2022-09-28T16:33:41.530Z,152945.53
2022-09-28T16:36:13.887Z,152821.75
2022-09-28T16:38:44.230Z,152847.50
2022-09-28T16:41:13.331Z,152853.97
2022-09-28T16:43:41.126Z,152785.69
2022-09-28T16:46:13.330Z,152844.97
2022-09-28T16:48:48.681Z,152828.22
2022-09-28T16:51:16.847Z,152811.44
2022-09-28T16:54:02.533Z,152790.84
2022-09-28T16:56:30.799Z,152834.63
2022-09-28T16:58:58.512Z,152790.84
2022-09-28T17:01:27.912Z,152754.75
2022-09-28T17:03:55.422Z,152788.25
2022-09-28T17:06:25.235Z,152744.44
2022-09-28T17:08:54.446Z,152703.22
2022-09-28T17:11:24.729Z,152777.97
2022-09-28T17:13:56.589Z,152781.81
2022-09-28T17:16:49.789Z,152749.63
2022-09-28T17:19:19.676Z,152698.06
2022-09-28T17:21:48.069Z,152654.28
2022-09-28T17:24:15.463Z,147466.63
2022-09-28T17:26:44.275Z,139593.19
2022-09-28T17:29:14.541Z,141324.75
2022-09-28T17:31:44.128Z,145206.78
2022-09-28T17:34:12.916Z,151723.22
2022-09-28T17:36:42.122Z,150538.44
2022-09-28T17:39:12.467Z,147243.97
2022-09-28T17:41:40.128Z,141309.25
2022-09-28T17:44:08.042Z,143602.13
2022-09-28T17:46:38.655Z,134959.22
2022-09-28T17:49:12.151Z,128777.16
2022-09-28T17:51:39.650Z,124662.50
2022-09-28T17:54:08.371Z,124366.41
2022-09-28T17:56:36.902Z,128069.56
2022-09-28T17:59:06.597Z,126708.69
2022-09-28T18:01:35.380Z,124997.34
2022-09-28T18:04:04.841Z,125697.72
2022-09-28T18:06:34.302Z,133659.78
2022-09-28T18:09:02.774Z,140093.72
2022-09-28T18:11:30.561Z,135199.47
2022-09-28T18:13:58.097Z,130004.69
2022-09-28T18:16:27.880Z,126233.28
2022-09-28T18:18:56.012Z,128687.09
2022-09-28T18:21:23.544Z,133430.06
2022-09-28T18:23:52.408Z,131740.44
2022-09-28T18:26:19.919Z,132437.50
2022-09-28T18:28:47.736Z,134784.03
2022-09-28T18:31:18.984Z,130929.78
2022-09-28T18:33:48.238Z,128222.56
2022-09-28T18:36:15.654Z,127806.25
2022-09-28T18:38:43.091Z,125394.94
2022-09-28T18:41:15.577Z,123694.09
2022-09-28T18:43:47.108Z,121951.47
2022-09-28T18:46:14.574Z,119915.97
2022-09-28T18:48:42.338Z,123990.50
2022-09-28T18:51:10.637Z,122240.03
2022-09-28T18:53:38.478Z,118796.63
2022-09-28T18:56:07.924Z,116813.72
2022-09-28T18:58:37.916Z,117758.63
2022-09-28T19:01:28.995Z,111612.25
2022-09-28T19:03:56.843Z,109588.28
2022-09-28T19:06:24.318Z,107547.28
2022-09-28T19:08:53.674Z,107869.94
2022-09-28T19:11:21.144Z,107866.31
2022-09-28T19:13:50.319Z,107193.78
2022-09-28T19:16:20.577Z,107870.84
2022-09-28T19:18:50.163Z,108857.66
2022-09-28T19:21:17.868Z,110208.06
2022-09-28T19:23:49.240Z,109539.28
2022-09-28T19:26:20.296Z,110162.50
2022-09-28T19:28:48.303Z,109126.63
2022-09-28T19:31:17.773Z,107048.22
2022-09-28T19:33:46.671Z,105371.84
2022-09-28T19:36:17.650Z,105344.28
2022-09-28T19:38:46.188Z,104993.44
2022-09-28T19:41:39.189Z,104330.91
2022-09-28T19:44:10.237Z,105330.91
2022-09-28T19:46:40.502Z,105689.81
2022-09-28T19:49:10.043Z,105005.00
2022-09-28T19:51:46.955Z,106708.81
2022-09-28T19:54:30.201Z,109752.25
2022-09-28T19:57:00.932Z,110463.13
2022-09-28T19:59:28.775Z,112458.00
2022-09-28T20:02:01.108Z,110748.59
2022-09-28T20:04:28.804Z,112388.69
2022-09-28T20:06:56.382Z,108685.00
2022-09-28T20:09:23.921Z,110663.47
2022-09-28T20:11:53.059Z,106944.28
2022-09-28T20:14:22.451Z,106607.94
2022-09-28T20:16:52.072Z,107631.59
2022-09-28T20:19:23.340Z,106302.97
2022-09-28T20:21:51.481Z,107986.28
2022-09-28T20:24:18.926Z,109316.66
2022-09-28T20:26:46.642Z,109657.75
2022-09-28T20:29:14.643Z,111028.09
2022-09-28T20:31:42.679Z,112388.69
2022-09-28T20:34:10.836Z,113418.78
2022-09-28T20:36:43.495Z,111078.75
2022-09-28T20:39:11.926Z,115130.59
2022-09-28T20:41:39.439Z,113415.88
2022-09-28T20:44:07.276Z,115444.00
2022-09-28T20:46:35.627Z,114110.53
2022-09-28T20:49:03.972Z,115453.75
2022-09-28T20:51:31.439Z,116429.72
2022-09-28T20:54:00.524Z,113991.03
2022-09-28T20:56:29.372Z,110943.75
2022-09-28T20:58:57.109Z,108549.19
2022-09-28T21:01:26.179Z,107214.53
2022-09-28T21:03:55.210Z,107224.50
2022-09-28T21:06:25.008Z,109234.47
2022-09-28T21:08:53.155Z,110952.16
2022-09-28T21:11:23.368Z,111264.06
2022-09-28T21:13:54.030Z,112574.97
2022-09-28T21:16:21.725Z,109506.81
2022-09-28T21:18:49.249Z,108507.94
2022-09-28T21:21:19.171Z,107150.22
2022-09-28T21:23:47.051Z,108147.22
2022-09-28T21:26:18.769Z,108798.00
2022-09-28T21:28:47.844Z,106756.50
2022-09-28T21:31:15.360Z,105397.34
2022-09-28T21:33:42.915Z,102741.25
2022-09-28T21:36:11.397Z,105434.78
2022-09-28T21:38:38.857Z,107428.09
2022-09-28T21:41:06.628Z,106072.38
2022-09-28T21:43:34.096Z,104050.09
2022-09-28T21:46:03.002Z,104043.94
2022-09-28T21:48:30.701Z,105389.34
2022-09-28T21:50:59.096Z,104022.84
2022-09-28T21:53:29.014Z,104690.53
2022-09-28T21:55:57.667Z,103339.44
2022-09-28T21:58:27.957Z,103339.44
2022-09-28T22:01:06.159Z,103960.41
2022-09-28T22:03:35.772Z,100612.66
2022-09-28T22:06:03.609Z,100928.38
2022-09-28T22:08:31.372Z,100265.38
2022-09-28T22:11:00.671Z,99898.78
2022-09-28T22:13:28.641Z,98227.78
2022-09-28T22:15:57.828Z,98876.47
2022-09-28T22:18:27.495Z,96872.22
2022-09-28T22:21:01.641Z,97873.53
2022-09-28T22:23:29.437Z,99535.81
2022-09-28T22:26:01.292Z,97542.50
2022-09-28T22:28:29.107Z,98221.94
2022-09-28T22:30:56.979Z,99562.75
2022-09-28T22:33:24.633Z,100922.41
2022-09-28T22:35:53.822Z,102588.47
2022-09-28T22:38:23.160Z,103912.06
2022-09-28T22:40:51.540Z,101899.88
2022-09-28T22:43:19.678Z,101873.13
2022-09-28T22:45:47.258Z,98851.38
2022-09-28T22:48:14.847Z,99160.44
2022-09-28T22:50:49.425Z,98150.53
2022-09-28T22:53:18.538Z,96145.00
2022-09-28T22:55:46.092Z,95129.78
2022-09-28T22:58:13.818Z,94781.25
2022-09-28T23:00:41.722Z,94105.25
2022-09-28T23:03:09.203Z,92780.22
2022-09-28T23:05:37.017Z,92786.50
2022-09-28T23:08:04.768Z,92109.00
2022-09-28T23:10:33.766Z,91771.09
2022-09-28T23:13:01.166Z,93079.63
2022-09-28T23:15:29.488Z,89741.88
2022-09-28T23:17:57.003Z,89067.25
2022-09-28T23:20:24.815Z,90383.75
2022-09-28T23:22:52.268Z,88721.31
2022-09-28T23:25:20.570Z,88371.75
2022-09-28T23:27:50.798Z,88027.50
2022-09-28T23:30:20.153Z,88013.38
2022-09-28T23:32:47.621Z,86674.81
2022-09-28T23:35:15.181Z,87987.28
2022-09-28T23:37:42.628Z,86645.50
2022-09-28T23:40:10.853Z,86636.69
2022-09-28T23:42:38.799Z,83976.72
2022-09-28T23:45:08.890Z,84976.06
2022-09-28T23:47:38.248Z,82990.66
2022-09-28T23:50:06.850Z,84656.09
2022-09-28T23:52:34.918Z,83985.25
2022-09-28T23:55:02.408Z,85309.69
2022-09-28T23:57:29.863Z,86293.66
2022-09-28T23:59:57.316Z,84958.09
